createdAt,value
2023-04-18T00:01:57.213Z,99518.84
2023-04-18T00:04:26.768Z,99522.97
2023-04-18T00:06:54.784Z,99527.94
2023-04-18T00:09:24.529Z,99522.84
2023-04-18T00:11:52.741Z,99522.84
2023-04-18T00:14:21.173Z,99526.94
2023-04-18T00:16:49.085Z,99527.72
2023-04-18T00:19:18.339Z,99530.22
2023-04-18T00:21:47.656Z,99530.16
2023-04-18T00:24:15.948Z,99532.63
2023-04-18T00:26:43.899Z,99529.31
2023-04-18T00:29:11.820Z,99532.63
2023-04-18T00:31:39.866Z,99542.63
2023-04-18T00:34:07.856Z,99530.03
2023-04-18T00:36:35.798Z,99540.06
2023-04-18T00:39:05.167Z,99534.22
2023-04-18T00:41:33.207Z,99535.88
2023-04-18T00:44:01.189Z,99535.00
2023-04-18T00:46:29.287Z,99533.34
2023-04-18T00:48:57.378Z,99533.31
2023-04-18T00:51:25.940Z,99533.31
2023-04-18T00:53:55.088Z,99528.28
2023-04-18T00:56:25.890Z,99534.09
2023-04-18T00:58:54.353Z,99530.78
2023-04-18T01:01:22.263Z,99534.94
2023-04-18T01:03:50.409Z,99525.69
2023-04-18T01:06:18.966Z,99532.38
2023-04-18T01:08:47.321Z,99534.88
2023-04-18T01:11:15.269Z,99527.34
2023-04-18T01:13:44.574Z,99525.63
2023-04-18T01:16:12.529Z,99533.13
2023-04-18T01:18:40.448Z,99534.78
2023-04-18T01:21:09.879Z,99529.75
2023-04-18T01:23:38.219Z,99529.69
2023-04-18T01:26:08.607Z,99529.63
2023-04-18T01:28:38.038Z,99532.94
2023-04-18T01:31:06.288Z,99531.25
2023-04-18T01:33:37.915Z,99534.53
2023-04-18T01:36:06.267Z,99532.00
2023-04-18T01:38:34.178Z,99537.06
2023-04-18T01:41:02.316Z,99527.09
2023-04-18T01:43:31.739Z,99523.81
2023-04-18T01:45:59.820Z,99524.75
2023-04-18T01:48:29.276Z,99515.53
2023-04-18T01:50:57.199Z,99527.31
2023-04-18T01:53:25.607Z,99523.09
2023-04-18T01:55:53.567Z,99522.28
2023-04-18T01:58:23.684Z,99520.56
2023-04-18T02:00:54.207Z,99524.66
2023-04-18T02:03:22.834Z,99536.38
2023-04-18T02:05:51.104Z,99531.38
2023-04-18T02:08:19.418Z,99528.91
2023-04-18T02:10:47.319Z,99523.97
2023-04-18T02:13:16.130Z,99527.38
2023-04-18T02:15:45.156Z,99528.16
2023-04-18T02:18:17.437Z,99520.59
2023-04-18T02:20:45.629Z,99523.19
2023-04-18T02:23:13.602Z,99528.19
2023-04-18T02:25:41.577Z,99521.41
2023-04-18T02:28:10.702Z,99524.63
2023-04-18T02:30:38.855Z,99530.47
2023-04-18T02:33:06.786Z,99532.94
2023-04-18T02:35:38.225Z,99529.56
2023-04-18T02:38:06.519Z,99537.16
2023-04-18T02:40:34.483Z,99533.81
2023-04-18T02:43:02.570Z,99536.19
2023-04-18T02:45:30.493Z,99546.22
2023-04-18T02:48:00.987Z,99541.16
2023-04-18T02:50:29.538Z,99546.13
2023-04-18T02:53:00.147Z,99541.81
2023-04-18T02:55:38.260Z,99548.41
2023-04-18T02:58:06.336Z,99541.63
2023-04-18T03:00:54.971Z,99547.41
2023-04-18T03:03:44.731Z,99539.84
2023-04-18T03:06:32.638Z,99549.84
2023-04-18T03:09:05.042Z,99544.88
2023-04-18T03:11:36.423Z,99550.75
2023-04-18T03:14:05.653Z,99549.94
2023-04-18T03:16:50.020Z,99552.50
2023-04-18T03:19:22.622Z,99555.00
2023-04-18T03:21:52.281Z,99555.06
2023-04-18T03:24:21.615Z,99545.78
2023-04-18T03:26:52.151Z,99561.78
2023-04-18T03:29:23.732Z,99558.41
2023-04-18T03:31:52.663Z,99550.84
2023-04-18T03:34:20.805Z,99553.34
2023-04-18T03:36:49.007Z,99560.88
2023-04-18T03:39:18.669Z,99551.56
2023-04-18T03:41:47.999Z,99555.81
2023-04-18T03:44:16.580Z,99566.78
2023-04-18T03:46:45.284Z,99562.66
2023-04-18T03:49:13.298Z,99566.06
2023-04-18T03:51:47.683Z,99567.81
2023-04-18T03:54:16.323Z,99562.03
2023-04-18T03:56:45.188Z,99561.22
2023-04-18T03:59:16.374Z,99567.94
2023-04-18T04:01:48.160Z,99572.09
2023-04-18T04:04:16.537Z,99565.31
2023-04-18T04:06:44.765Z,99572.81
2023-04-18T04:09:13.422Z,99576.97
2023-04-18T04:11:41.631Z,99584.44
2023-04-18T04:14:13.045Z,99575.16
2023-04-18T04:16:47.037Z,99572.63
2023-04-18T04:19:20.781Z,99580.19
2023-04-18T04:21:56.299Z,99586.91
2023-04-18T04:24:24.264Z,99587.69
2023-04-18T04:26:53.860Z,99587.53
2023-04-18T04:29:25.031Z,99598.31
2023-04-18T04:31:55.663Z,99597.38
2023-04-18T04:34:34.380Z,99601.47
2023-04-18T04:37:05.006Z,99598.91
2023-04-18T04:39:39.447Z,99586.94
2023-04-18T04:42:42.402Z,99603.06
2023-04-18T04:45:17.637Z,99603.06
2023-04-18T04:47:48.549Z,99606.41
2023-04-18T04:50:16.638Z,99613.22
2023-04-18T04:52:44.627Z,99611.63
2023-04-18T04:55:12.673Z,99611.63
2023-04-18T04:57:42.278Z,99606.63
2023-04-18T05:00:30.455Z,99601.53
2023-04-18T05:02:59.973Z,99608.25
2023-04-18T05:05:28.885Z,99605.84
2023-04-18T05:07:58.473Z,99602.56
2023-04-18T05:10:26.593Z,99606.03
2023-04-18T05:12:54.569Z,99609.41
2023-04-18T05:15:22.424Z,99611.13
2023-04-18T05:17:50.346Z,99614.56
2023-04-18T05:20:19.647Z,99615.38
2023-04-18T05:22:47.601Z,99622.03
2023-04-18T05:25:15.717Z,99606.03
2023-04-18T05:27:44.181Z,99621.16
2023-04-18T05:30:12.483Z,99623.72
2023-04-18T05:32:40.420Z,99621.97
2023-04-18T05:35:09.273Z,99627.09
2023-04-18T05:37:38.700Z,99625.56
2023-04-18T05:40:08.115Z,99627.44
2023-04-18T05:42:36.021Z,99635.19
2023-04-18T05:45:03.923Z,99628.72
2023-04-18T05:47:33.622Z,99634.00
2023-04-18T05:50:01.620Z,99640.84
2023-04-18T05:52:29.550Z,99634.31
2023-04-18T05:54:58.795Z,99646.25
2023-04-18T05:57:26.662Z,99641.47
2023-04-18T05:59:54.494Z,99628.22
2023-04-18T06:02:24.598Z,99635.91
2023-04-18T06:04:52.848Z,99641.91
2023-04-18T06:07:21.433Z,99632.78
2023-04-18T06:09:49.876Z,99638.84
2023-04-18T06:12:19.085Z,99635.56
2023-04-18T06:14:47.192Z,99632.25
2023-04-18T06:17:15.283Z,99639.13
2023-04-18T06:19:43.268Z,99648.44
2023-04-18T06:22:11.296Z,99649.41
2023-04-18T06:24:39.163Z,99637.69
2023-04-18T06:27:10.735Z,99641.09
2023-04-18T06:29:44.378Z,99650.44
2023-04-18T06:32:12.240Z,99647.84
2023-04-18T06:34:40.686Z,99646.94
2023-04-18T06:37:08.756Z,99652.03
2023-04-18T06:39:36.692Z,99661.22
2023-04-18T06:42:04.876Z,99659.44
2023-04-18T06:44:33.061Z,99655.25
2023-04-18T06:47:02.396Z,99652.78
2023-04-18T06:49:30.699Z,99665.53
2023-04-18T06:51:58.614Z,99664.81
2023-04-18T06:54:26.610Z,99668.19
2023-04-18T06:56:54.501Z,99666.59
2023-04-18T06:59:23.357Z,99659.88
2023-04-18T07:01:52.351Z,99674.19
2023-04-18T07:04:21.722Z,99678.44
2023-04-18T07:06:49.661Z,99678.44
2023-04-18T07:09:17.638Z,99676.78
2023-04-18T07:11:45.519Z,99680.22
2023-04-18T07:14:13.554Z,99678.56
2023-04-18T07:16:41.818Z,99678.59
2023-04-18T07:19:09.846Z,99681.91
2023-04-18T07:21:40.619Z,99686.09
2023-04-18T07:24:08.759Z,99680.31
2023-04-18T07:26:36.746Z,99682.00
2023-04-18T07:29:05.002Z,99681.16
2023-04-18T07:31:33.008Z,99686.97
2023-04-18T07:34:01.082Z,99678.50
2023-04-18T07:36:29.324Z,99687.75
2023-04-18T07:38:58.809Z,99696.09
2023-04-18T07:41:26.709Z,99691.00
2023-04-18T07:43:54.656Z,99699.34
2023-04-18T07:46:22.726Z,99701.78
2023-04-18T07:48:50.894Z,99703.34
2023-04-18T07:51:18.772Z,99706.69
2023-04-18T07:53:46.701Z,99711.75
2023-04-18T07:56:16.034Z,99714.22
2023-04-18T07:58:43.942Z,99715.06
2023-04-18T08:01:14.022Z,99713.41
2023-04-18T08:03:42.360Z,99713.34
2023-04-18T08:06:10.456Z,99719.19
2023-04-18T08:08:38.296Z,99714.09
2023-04-18T08:11:06.303Z,99718.38
2023-04-18T08:13:35.655Z,99722.63
2023-04-18T08:16:03.585Z,99720.16
2023-04-18T08:18:31.578Z,99721.06
2023-04-18T08:20:59.478Z,99714.41
2023-04-18T08:23:27.363Z,99726.19
2023-04-18T08:25:55.290Z,99712.75
2023-04-18T08:28:23.198Z,99722.06
2023-04-18T08:30:52.383Z,99726.31
2023-04-18T08:33:20.399Z,99724.66
2023-04-18T08:35:48.387Z,99727.22
2023-04-18T08:38:17.188Z,99739.03
2023-04-18T08:40:45.814Z,99732.38
2023-04-18T08:43:15.085Z,99736.59
2023-04-18T08:45:43.554Z,99733.16
2023-04-18T08:48:14.818Z,99742.41
2023-04-18T08:50:43.632Z,99733.28
2023-04-18T08:53:11.941Z,99742.66
2023-04-18T08:55:40.458Z,99737.78
2023-04-18T08:58:08.435Z,99737.88
2023-04-18T09:00:36.349Z,99745.53
2023-04-18T09:03:04.651Z,99745.59
2023-04-18T09:05:35.565Z,99744.84
2023-04-18T09:08:23.936Z,99749.06
2023-04-18T09:10:51.838Z,99742.38
2023-04-18T09:13:38.740Z,99739.88
2023-04-18T09:16:07.868Z,99750.84
2023-04-18T09:18:36.266Z,99737.41
2023-04-18T09:21:19.663Z,99739.13
2023-04-18T09:23:47.952Z,99724.00
2023-04-18T09:26:33.524Z,99721.50
2023-04-18T09:29:03.212Z,99725.69
2023-04-18T09:31:31.510Z,99723.16
2023-04-18T09:34:00.734Z,99727.31
2023-04-18T09:36:31.394Z,99719.75
2023-04-18T09:38:59.410Z,99724.84
2023-04-18T09:41:27.490Z,99714.81
2023-04-18T09:44:13.531Z,99719.13
2023-04-18T09:46:46.108Z,99720.84
2023-04-18T09:49:15.203Z,99715.00
2023-04-18T09:51:46.102Z,99710.03
2023-04-18T09:54:16.683Z,99706.66
2023-04-18T09:56:45.992Z,99710.78
2023-04-18T09:59:21.269Z,99710.78
2023-04-18T10:01:50.879Z,99704.88
2023-04-18T10:04:19.827Z,99699.78
2023-04-18T10:06:49.940Z,99706.56
2023-04-18T10:09:18.660Z,99705.75
2023-04-18T10:11:46.660Z,99709.97
2023-04-18T10:14:17.345Z,99704.13
2023-04-18T10:16:48.625Z,99713.41
2023-04-18T10:19:22.867Z,99715.16
2023-04-18T10:21:57.093Z,99704.22
2023-04-18T10:24:52.769Z,99716.84
2023-04-18T10:27:40.998Z,99721.91
2023-04-18T10:30:09.975Z,99716.88
2023-04-18T10:32:37.901Z,99714.31
2023-04-18T10:35:06.420Z,99710.94
2023-04-18T10:37:36.137Z,99713.44
2023-04-18T10:40:06.601Z,99706.72
2023-04-18T10:42:59.604Z,99703.38
2023-04-18T10:45:28.870Z,99701.69
2023-04-18T10:48:24.729Z,99696.63
2023-04-18T10:51:15.681Z,99689.88
2023-04-18T10:53:52.669Z,99686.50
2023-04-18T10:56:21.036Z,99687.34
2023-04-18T10:58:51.960Z,99678.94
2023-04-18T11:01:31.617Z,99673.03
2023-04-18T11:04:00.977Z,99683.13
2023-04-18T11:06:30.335Z,99675.56
2023-04-18T11:09:12.534Z,99661.22
2023-04-18T11:11:41.482Z,99661.16
2023-04-18T11:14:09.424Z,99664.47
2023-04-18T11:16:38.174Z,99674.53
2023-04-18T11:19:23.291Z,99667.75
2023-04-18T11:21:52.053Z,99668.63
2023-04-18T11:24:24.987Z,99671.06
2023-04-18T11:26:55.635Z,99664.22
2023-04-18T11:29:23.866Z,99667.53
2023-04-18T11:31:54.044Z,99665.06
2023-04-18T11:34:29.268Z,99664.13
2023-04-18T11:36:57.346Z,99664.03
2023-04-18T11:39:26.967Z,99670.78
2023-04-18T11:41:57.143Z,99663.16
2023-04-18T11:44:25.609Z,99657.22
2023-04-18T11:46:53.548Z,99666.50
2023-04-18T11:49:29.278Z,99659.72
2023-04-18T11:51:57.219Z,99662.19
2023-04-18T11:54:39.937Z,99658.03
2023-04-18T11:57:20.005Z,99646.09
2023-04-18T11:59:52.956Z,99646.94
2023-04-18T12:02:22.607Z,99646.88
2023-04-18T12:04:53.426Z,99641.84
2023-04-18T12:07:46.338Z,99646.13
2023-04-18T12:10:27.660Z,99640.22
2023-04-18T12:12:58.602Z,99642.75
2023-04-18T12:15:28.651Z,99640.19
2023-04-18T12:18:01.398Z,99638.50
2023-04-18T12:20:37.451Z,99638.59
2023-04-18T12:23:05.718Z,99642.09
2023-04-18T12:25:35.340Z,99638.78
2023-04-18T12:28:04.756Z,99635.41
2023-04-18T12:30:36.809Z,99633.56
2023-04-18T12:33:06.603Z,99625.78
2023-04-18T12:35:34.626Z,99629.72
2023-04-18T12:38:03.761Z,99631.00
2023-04-18T12:40:32.070Z,99621.28
2023-04-18T12:43:03.419Z,99625.31
2023-04-18T12:45:31.827Z,99625.13
2023-04-18T12:47:59.878Z,99619.97
2023-04-18T12:50:28.125Z,99622.59
2023-04-18T12:52:58.408Z,99617.50
2023-04-18T12:55:26.938Z,99626.06
2023-04-18T12:57:55.575Z,99613.59
2023-04-18T13:00:29.889Z,99611.09
2023-04-18T13:02:58.735Z,99606.97
2023-04-18T13:05:30.663Z,99605.41
2023-04-18T13:08:12.828Z,99605.63
2023-04-18T13:10:44.606Z,99608.34
2023-04-18T13:13:12.624Z,99604.97
2023-04-18T13:15:42.605Z,99607.53
2023-04-18T13:18:10.491Z,99599.94
2023-04-18T13:20:38.412Z,99606.66
2023-04-18T13:23:06.366Z,99603.22
2023-04-18T13:25:34.358Z,99598.91
2023-04-18T13:28:02.239Z,99604.06
2023-04-18T13:30:30.299Z,99600.94
2023-04-18T13:32:59.699Z,99606.97
2023-04-18T13:35:27.722Z,99613.84
2023-04-18T13:37:55.986Z,99609.75
2023-04-18T13:40:24.242Z,99612.41
2023-04-18T13:42:52.488Z,99596.41
2023-04-18T13:45:20.504Z,99600.72
2023-04-18T13:47:48.464Z,99599.91
2023-04-18T13:50:17.756Z,99607.63
2023-04-18T13:52:47.081Z,99600.06
2023-04-18T13:55:16.148Z,99611.94
2023-04-18T13:57:44.025Z,99602.69
2023-04-18T14:00:14.322Z,99610.28
2023-04-18T14:02:42.624Z,99605.22
2023-04-18T14:05:10.972Z,99605.22
2023-04-18T14:07:40.583Z,99606.06
2023-04-18T14:10:09.306Z,99608.63
2023-04-18T14:12:37.537Z,99600.22
2023-04-18T14:15:06.441Z,99606.94
2023-04-18T14:17:34.814Z,99609.44
2023-04-18T14:20:04.308Z,99603.50
2023-04-18T14:22:32.164Z,99606.88
2023-04-18T14:25:01.510Z,99606.00
2023-04-18T14:27:29.595Z,99604.28
2023-04-18T14:29:57.399Z,99601.72
2023-04-18T14:32:25.370Z,99602.53
2023-04-18T14:34:53.433Z,99614.28
2023-04-18T14:37:22.289Z,99607.47
2023-04-18T14:39:50.576Z,99603.16
2023-04-18T14:42:19.901Z,99605.66
2023-04-18T14:44:48.319Z,99608.97
2023-04-18T14:47:16.456Z,99599.66
2023-04-18T14:49:44.367Z,99597.13
2023-04-18T14:52:12.330Z,99603.09
2023-04-18T14:54:40.230Z,99599.72
2023-04-18T14:57:08.306Z,99593.00
2023-04-18T14:59:37.452Z,99591.34
2023-04-18T15:02:05.372Z,99590.63
2023-04-18T15:04:33.365Z,99600.03
2023-04-18T15:07:01.865Z,99596.72
2023-04-18T15:09:29.954Z,99603.50
2023-04-18T15:11:58.268Z,99606.91
2023-04-18T15:14:26.161Z,99602.69
2023-04-18T15:16:55.943Z,99600.16
2023-04-18T15:19:23.942Z,99599.31
2023-04-18T15:21:52.340Z,99595.09
2023-04-18T15:24:20.276Z,99597.63
2023-04-18T15:26:48.321Z,99601.00
2023-04-18T15:29:16.199Z,99595.94
2023-04-18T15:31:45.105Z,99606.94
2023-04-18T15:34:14.580Z,99601.88
2023-04-18T15:36:42.532Z,99600.19
2023-04-18T15:39:10.644Z,99603.56
2023-04-18T15:41:39.160Z,99608.66
2023-04-18T15:44:08.039Z,99610.34
2023-04-18T15:46:37.536Z,99610.38
2023-04-18T15:49:05.607Z,99607.84
2023-04-18T15:51:34.799Z,99610.41
2023-04-18T15:54:02.723Z,99608.75
2023-04-18T15:56:33.058Z,99608.78
2023-04-18T15:59:05.118Z,99608.81
2023-04-18T16:01:33.385Z,99608.84
2023-04-18T16:04:01.510Z,99598.75
2023-04-18T16:06:31.213Z,99617.31
2023-04-18T16:09:00.596Z,99626.63
2023-04-18T16:11:28.894Z,99627.50
2023-04-18T16:13:56.889Z,99622.44
2023-04-18T16:16:24.870Z,99620.75
2023-04-18T16:18:52.721Z,99631.72
2023-04-18T16:21:20.988Z,99633.41
2023-04-18T16:23:49.399Z,99634.25
2023-04-18T16:26:18.618Z,99627.53
2023-04-18T16:28:48.077Z,99639.34
2023-04-18T16:31:16.359Z,99647.75
2023-04-18T16:33:45.253Z,99638.47
2023-04-18T16:36:13.217Z,99649.47
2023-04-18T16:38:41.189Z,99657.03
2023-04-18T16:41:09.197Z,99662.06
2023-04-18T16:43:38.529Z,99656.19
2023-04-18T16:46:06.719Z,99662.09
2023-04-18T16:48:37.944Z,99662.06
2023-04-18T16:51:06.589Z,99663.75
2023-04-18T16:53:34.459Z,99667.13
2023-04-18T16:56:03.160Z,99667.13
2023-04-18T16:58:31.129Z,99667.94
2023-04-18T17:01:02.371Z,99650.19
2023-04-18T17:03:30.557Z,99677.97
2023-04-18T17:05:58.594Z,99680.50
2023-04-18T17:08:28.574Z,99656.00
2023-04-18T17:10:56.544Z,99681.25
2023-04-18T17:13:27.002Z,99679.59
2023-04-18T17:15:55.195Z,99690.53
2023-04-18T17:18:24.545Z,99686.28
2023-04-18T17:20:52.626Z,99695.53
2023-04-18T17:23:21.826Z,99696.34
2023-04-18T17:25:49.889Z,99694.63
2023-04-18T17:28:18.042Z,99706.41
2023-04-18T17:30:46.352Z,99706.38
2023-04-18T17:33:14.151Z,99711.34
2023-04-18T17:35:43.431Z,99711.28
2023-04-18T17:38:11.581Z,99713.81
2023-04-18T17:40:40.426Z,99728.13
2023-04-18T17:43:08.375Z,99727.28
2023-04-18T17:45:37.267Z,99727.28
2023-04-18T17:48:05.935Z,99728.13
2023-04-18T17:50:36.986Z,99734.84
2023-04-18T17:53:06.326Z,99733.19
2023-04-18T17:55:34.175Z,99734.88
2023-04-18T17:58:02.104Z,99739.09
2023-04-18T18:00:31.184Z,99745.81
2023-04-18T18:03:01.354Z,99739.06
2023-04-18T18:05:30.098Z,99739.94
2023-04-18T18:07:58.341Z,99750.06
2023-04-18T18:10:28.086Z,99744.16
2023-04-18T18:12:56.169Z,99755.09
2023-04-18T18:15:25.139Z,99755.94
2023-04-18T18:17:53.235Z,99755.94
2023-04-18T18:20:21.585Z,99760.16
2023-04-18T18:22:49.527Z,99768.56
2023-04-18T18:25:17.443Z,99771.06
2023-04-18T18:27:46.744Z,99770.16
2023-04-18T18:30:14.876Z,99779.38
2023-04-18T18:32:42.788Z,99778.56
2023-04-18T18:35:10.757Z,99778.56
2023-04-18T18:37:38.736Z,99781.91
2023-04-18T18:40:08.541Z,99787.00
2023-04-18T18:42:36.470Z,99791.22
2023-04-18T18:45:07.635Z,99789.53
2023-04-18T18:47:37.473Z,99790.34
2023-04-18T18:50:07.557Z,99795.31
2023-04-18T18:52:35.601Z,99798.69
2023-04-18T18:55:03.928Z,99792.81
2023-04-18T18:57:32.046Z,99802.03
2023-04-18T18:59:59.939Z,99798.63
2023-04-18T19:02:29.364Z,99796.91
2023-04-18T19:04:57.577Z,99800.25
2023-04-18T19:07:25.668Z,99801.91
2023-04-18T19:09:55.230Z,99801.09
2023-04-18T19:12:23.120Z,99799.41
2023-04-18T19:14:51.072Z,99808.63
2023-04-18T19:17:21.897Z,99811.97
2023-04-18T19:19:51.400Z,99813.66
2023-04-18T19:22:19.275Z,99821.16
2023-04-18T19:24:47.485Z,99823.66
2023-04-18T19:27:15.309Z,99827.00
2023-04-18T19:29:43.102Z,99827.81
2023-04-18T19:32:11.123Z,99827.00
2023-04-18T19:34:39.038Z,99820.25
2023-04-18T19:37:08.300Z,99803.41
2023-04-18T19:39:36.386Z,99819.34
2023-04-18T19:42:05.090Z,99820.16
2023-04-18T19:44:32.966Z,99821.03
2023-04-18T19:47:00.918Z,99833.59
2023-04-18T19:49:28.845Z,99820.16
2023-04-18T19:51:56.924Z,99826.06
2023-04-18T19:54:26.612Z,99820.94
2023-04-18T19:56:54.549Z,99821.66
2023-04-18T19:59:22.392Z,99820.72
2023-04-18T20:01:50.363Z,99823.16
2023-04-18T20:04:18.323Z,99823.97
2023-04-18T20:06:46.401Z,99820.50
2023-04-18T20:09:16.930Z,99822.16
2023-04-18T20:11:48.422Z,99817.91
2023-04-18T20:14:16.400Z,99829.63
2023-04-18T20:16:45.898Z,99830.47
2023-04-18T20:19:14.584Z,99831.31
2023-04-18T20:21:42.770Z,99832.94
2023-04-18T20:24:10.681Z,99836.22
2023-04-18T20:26:38.556Z,99839.47
2023-04-18T20:29:08.365Z,99835.94
2023-04-18T20:31:37.667Z,99843.44
2023-04-18T20:34:05.603Z,99839.28
2023-04-18T20:36:34.379Z,99836.03
2023-04-18T20:39:03.478Z,99838.66
2023-04-18T20:41:32.470Z,99826.06
2023-04-18T20:44:05.068Z,99834.41
2023-04-18T20:46:34.506Z,99832.81
2023-04-18T20:49:02.616Z,99829.50
2023-04-18T20:51:31.770Z,99838.72
2023-04-18T20:53:59.622Z,99819.34
2023-04-18T20:56:27.672Z,99831.84
2023-04-18T20:58:55.640Z,99831.75
2023-04-18T21:01:23.753Z,99822.59
2023-04-18T21:03:53.321Z,99821.84
2023-04-18T21:06:22.130Z,99816.78
2023-04-18T21:08:50.655Z,99820.13
2023-04-18T21:11:18.585Z,99821.75
2023-04-18T21:13:46.495Z,99816.66
2023-04-18T21:16:14.597Z,99820.88
2023-04-18T21:18:42.584Z,99824.31
2023-04-18T21:21:12.447Z,99819.34
2023-04-18T21:23:43.861Z,99810.97
2023-04-18T21:26:13.368Z,99824.31
2023-04-18T21:28:58.204Z,99815.06
2023-04-18T21:31:27.156Z,99815.09
2023-04-18T21:33:55.566Z,99809.25
2023-04-18T21:36:26.375Z,99811.75
2023-04-18T21:38:55.405Z,99810.91
2023-04-18T21:41:24.416Z,99810.91
2023-04-18T21:43:52.831Z,99807.56
2023-04-18T21:46:21.113Z,99800.84
2023-04-18T21:48:49.534Z,99813.47
2023-04-18T21:51:17.802Z,99805.91
2023-04-18T21:53:47.133Z,99797.50
2023-04-18T21:56:15.118Z,99802.53
2023-04-18T21:58:43.206Z,99786.59
2023-04-18T22:01:11.300Z,99797.50
2023-04-18T22:03:39.574Z,99791.66
2023-04-18T22:06:10.438Z,99792.38
2023-04-18T22:08:38.434Z,99788.91
2023-04-18T22:11:09.166Z,99793.81
2023-04-18T22:13:37.126Z,99789.59
2023-04-18T22:16:05.439Z,99792.13
2023-04-18T22:18:34.567Z,99789.56
2023-04-18T22:21:03.507Z,99789.66
2023-04-18T22:23:31.958Z,99792.91
2023-04-18T22:26:00.059Z,99791.94
2023-04-18T22:28:29.534Z,99788.44
2023-04-18T22:30:57.813Z,99791.72
2023-04-18T22:33:26.018Z,99791.56
2023-04-18T22:35:54.200Z,99784.81
2023-04-18T22:38:22.125Z,99780.53
2023-04-18T22:40:50.277Z,99779.63
2023-04-18T22:43:22.605Z,99782.03
2023-04-18T22:45:52.387Z,99778.69
2023-04-18T22:48:20.411Z,99782.06
2023-04-18T22:50:49.961Z,99774.50
2023-04-18T22:53:18.296Z,99780.38
2023-04-18T22:55:46.595Z,99773.66
2023-04-18T22:58:14.698Z,99777.78
2023-04-18T23:00:43.144Z,99777.75
2023-04-18T23:03:12.552Z,99773.50
2023-04-18T23:05:41.358Z,99774.25
2023-04-18T23:08:09.311Z,99770.88
2023-04-18T23:10:37.142Z,99765.84
2023-04-18T23:13:05.214Z,99760.88
2023-04-18T23:15:33.289Z,99766.06
2023-04-18T23:18:01.454Z,99758.75
2023-04-18T23:20:30.766Z,99757.19
2023-04-18T23:22:58.596Z,99753.09
2023-04-18T23:25:26.481Z,99748.13
2023-04-18T23:27:54.414Z,99750.56
2023-04-18T23:30:22.381Z,99754.47
2023-04-18T23:32:50.267Z,99758.59
2023-04-18T23:35:18.474Z,99751.72
2023-04-18T23:37:47.697Z,99748.41
2023-04-18T23:40:15.619Z,99744.22
2023-04-18T23:42:43.801Z,99744.09
2023-04-18T23:45:12.707Z,99735.72
2023-04-18T23:47:40.607Z,99718.91
2023-04-18T23:50:09.618Z,99732.47
2023-04-18T23:52:38.522Z,99726.69
2023-04-18T23:55:08.767Z,99721.88
2023-04-18T23:57:36.731Z,99718.56
